createdAt,value
2022-10-13T00:05:01.555Z,92.02
2022-10-13T00:10:05.088Z,91.93
2022-10-13T00:15:09.427Z,91.98
2022-10-13T00:20:13.837Z,91.86
2022-10-13T00:25:16.713Z,91.85
2022-10-13T00:30:19.510Z,91.74
2022-10-13T00:35:23.565Z,91.87
2022-10-13T00:40:26.350Z,92.07
2022-10-13T00:45:30.763Z,92.26
2022-10-13T00:50:38.918Z,92.21
2022-10-13T00:55:44.732Z,92.20
2022-10-13T01:00:50.630Z,92.15
2022-10-13T01:05:58.948Z,92.40
2022-10-13T01:11:13.352Z,92.64
2022-10-13T01:16:26.429Z,92.82
2022-10-13T01:21:37.583Z,93.05
2022-10-13T01:27:15.882Z,92.89
2022-10-13T01:32:27.957Z,92.73
2022-10-13T01:37:34.764Z,93.23
2022-10-13T01:42:44.296Z,93.44
2022-10-13T01:47:49.326Z,93.61
2022-10-13T01:52:53.214Z,93.55
2022-10-13T01:57:56.347Z,93.78
2022-10-13T02:03:08.451Z,93.46
2022-10-13T02:08:18.314Z,93.60
2022-10-13T02:13:24.977Z,93.74
2022-10-13T02:18:32.354Z,93.63
2022-10-13T02:23:35.558Z,93.73
2022-10-13T02:28:39.220Z,93.81
2022-10-13T02:33:43.351Z,93.99
2022-10-13T02:38:46.053Z,93.87
2022-10-13T02:43:48.773Z,93.71
2022-10-13T02:48:53.416Z,93.70
2022-10-13T02:53:56.132Z,93.89
2022-10-13T02:58:58.830Z,94.38
2022-10-13T03:04:02.877Z,94.39
2022-10-13T03:09:05.816Z,94.52
2022-10-13T03:14:08.505Z,94.79
2022-10-13T03:19:12.796Z,94.67
2022-10-13T03:24:15.510Z,94.72
2022-10-13T03:29:19.192Z,94.63
2022-10-13T03:34:23.290Z,94.93
2022-10-13T03:39:26.275Z,94.72
2022-10-13T03:44:29.108Z,94.91
2022-10-13T03:49:33.312Z,94.96
2022-10-13T03:54:36.088Z,95.17
2022-10-13T03:59:41.121Z,95.45
2022-10-13T04:04:45.220Z,95.51
2022-10-13T04:09:47.946Z,95.58
2022-10-13T04:14:50.684Z,95.34
2022-10-13T04:19:54.790Z,95.79
2022-10-13T04:24:57.520Z,95.76
2022-10-13T04:30:00.305Z,95.59
2022-10-13T04:35:04.935Z,95.83
2022-10-13T04:40:08.564Z,95.69
2022-10-13T04:45:11.825Z,95.88
2022-10-13T04:50:15.874Z,95.96
2022-10-13T04:55:18.798Z,95.73
2022-10-13T05:00:21.771Z,95.88
2022-10-13T05:05:25.920Z,96.06
2022-10-13T05:10:32.583Z,95.97
2022-10-13T05:15:40.025Z,96.11
2022-10-13T05:20:44.188Z,95.86
2022-10-13T05:25:46.863Z,96.14
2022-10-13T05:30:49.542Z,95.95
2022-10-13T05:35:53.643Z,95.77
2022-10-13T05:40:56.356Z,95.53
2022-10-13T05:45:59.429Z,95.79
2022-10-13T05:51:07.500Z,95.53
2022-10-13T05:56:15.119Z,95.61
2022-10-13T06:01:22.717Z,95.58
2022-10-13T06:06:30.575Z,95.35
2022-10-13T06:11:34.251Z,95.44
2022-10-13T06:16:37.564Z,95.43
2022-10-13T06:21:41.608Z,95.08
2022-10-13T06:26:44.504Z,95.43
2022-10-13T06:31:47.780Z,95.59
2022-10-13T06:36:51.839Z,95.55
2022-10-13T06:41:55.362Z,95.79
2022-10-13T06:46:58.067Z,96.28
2022-10-13T06:52:02.159Z,96.14
2022-10-13T06:57:06.915Z,96.39
2022-10-13T07:02:10.242Z,96.43
2022-10-13T07:07:14.608Z,96.60
2022-10-13T07:12:18.043Z,96.70
2022-10-13T07:17:21.399Z,96.78
2022-10-13T07:22:25.865Z,96.88
2022-10-13T07:27:29.039Z,97.17
2022-10-13T07:32:32.432Z,97.00
2022-10-13T07:37:36.624Z,96.72
2022-10-13T07:42:39.340Z,96.66
2022-10-13T07:47:42.034Z,97.15
2022-10-13T07:52:46.112Z,96.90
2022-10-13T07:57:48.794Z,96.94
2022-10-13T08:02:51.823Z,96.90
2022-10-13T08:07:58.354Z,96.64
2022-10-13T08:13:01.446Z,96.76
2022-10-13T08:18:04.160Z,96.56
2022-10-13T08:23:08.240Z,96.69
2022-10-13T08:28:18.959Z,96.81
2022-10-13T08:33:21.997Z,96.82
2022-10-13T08:38:26.092Z,96.71
2022-10-13T08:43:29.249Z,96.66
2022-10-13T08:48:36.208Z,96.36
2022-10-13T08:53:43.909Z,96.12
2022-10-13T08:58:47.721Z,95.94
2022-10-13T09:03:54.396Z,95.94
2022-10-13T09:09:00.843Z,95.70
2022-10-13T09:14:06.117Z,95.64
2022-10-13T09:19:20.923Z,95.32
2022-10-13T09:24:27.827Z,95.14
2022-10-13T09:29:30.589Z,94.76
2022-10-13T09:34:34.350Z,94.28
2022-10-13T09:39:38.475Z,94.13
2022-10-13T09:44:41.807Z,93.55
2022-10-13T09:49:45.069Z,93.30
2022-10-13T09:54:51.118Z,93.01
2022-10-13T09:59:59.892Z,92.85
2022-10-13T10:05:07.560Z,92.19
2022-10-13T10:10:23.928Z,91.94
2022-10-13T10:15:34.946Z,91.59
2022-10-13T10:20:53.901Z,91.47
2022-10-13T10:26:01.828Z,91.37
2022-10-13T10:31:13.140Z,90.71
2022-10-13T10:36:20.598Z,90.60
2022-10-13T10:41:39.767Z,90.20
2022-10-13T10:46:47.616Z,90.08
2022-10-13T10:51:50.966Z,89.54
2022-10-13T10:56:59.468Z,89.56
2022-10-13T11:02:17.242Z,89.10
2022-10-13T11:07:53.198Z,88.41
2022-10-13T11:13:27.486Z,88.26
2022-10-13T11:19:09.410Z,88.19
2022-10-13T11:24:46.804Z,88.08
2022-10-13T11:29:56.556Z,87.64
2022-10-13T11:35:01.613Z,87.54
2022-10-13T11:40:17.554Z,87.24
2022-10-13T11:45:42.757Z,86.84
2022-10-13T11:50:54.964Z,86.60
2022-10-13T11:55:59.230Z,86.63
2022-10-13T12:01:06.420Z,86.16
2022-10-13T12:06:33.708Z,85.98
2022-10-13T12:11:38.795Z,85.76
2022-10-13T12:16:53.668Z,85.62
2022-10-13T12:21:58.625Z,85.56
2022-10-13T12:27:11.820Z,85.41
2022-10-13T12:32:24.439Z,85.34
2022-10-13T12:37:30.961Z,84.82
2022-10-13T12:42:36.974Z,84.76
2022-10-13T12:47:48.931Z,84.81
2022-10-13T12:52:52.755Z,84.58
2022-10-13T12:57:55.903Z,84.14
2022-10-13T13:03:01.663Z,84.15
2022-10-13T13:08:05.828Z,83.92
2022-10-13T13:13:15.955Z,83.56
2022-10-13T13:18:42.211Z,83.56
2022-10-13T13:23:51.041Z,83.57
2022-10-13T13:28:57.941Z,83.44
2022-10-13T13:34:02.059Z,83.50
2022-10-13T13:39:05.061Z,83.48
2022-10-13T13:44:07.861Z,83.66
2022-10-13T13:49:12.691Z,83.53
2022-10-13T13:54:15.393Z,83.62
2022-10-13T13:59:18.100Z,83.86
2022-10-13T14:04:22.532Z,83.99
2022-10-13T14:09:25.223Z,84.23
2022-10-13T14:14:28.057Z,84.38
2022-10-13T14:19:32.475Z,84.59
2022-10-13T14:24:35.440Z,84.56
2022-10-13T14:29:38.357Z,84.76
2022-10-13T14:34:42.453Z,84.74
2022-10-13T14:39:45.240Z,84.76
2022-10-13T14:44:48.085Z,84.88
2022-10-13T14:49:52.163Z,84.93
2022-10-13T14:54:54.873Z,85.13
2022-10-13T15:00:01.659Z,85.19
2022-10-13T15:05:07.579Z,85.54
2022-10-13T15:10:10.577Z,85.56
2022-10-13T15:15:13.754Z,85.57
2022-10-13T15:20:17.974Z,85.79
2022-10-13T15:25:20.668Z,86.08
2022-10-13T15:30:23.415Z,86.12
2022-10-13T15:35:30.590Z,86.28
2022-10-13T15:40:33.607Z,86.64
2022-10-13T15:45:36.850Z,86.78
2022-10-13T15:50:41.439Z,86.92
2022-10-13T15:55:44.202Z,86.99
2022-10-13T16:00:47.037Z,87.29
2022-10-13T16:05:51.182Z,87.44
2022-10-13T16:10:53.948Z,87.50
2022-10-13T16:16:00.567Z,87.76
2022-10-13T16:21:13.336Z,88.25
2022-10-13T16:26:20.272Z,88.22
2022-10-13T16:31:23.553Z,88.74
2022-10-13T16:36:27.750Z,88.67
2022-10-13T16:41:30.543Z,88.78
2022-10-13T16:46:34.191Z,89.11
2022-10-13T16:51:38.606Z,89.26
2022-10-13T16:56:41.430Z,89.53
2022-10-13T17:01:45.181Z,89.82
2022-10-13T17:06:49.353Z,90.01
2022-10-13T17:11:52.067Z,89.97
2022-10-13T17:16:57.710Z,90.35
2022-10-13T17:22:02.552Z,91.05
2022-10-13T17:27:05.430Z,91.43
2022-10-13T17:32:08.219Z,91.70
2022-10-13T17:37:12.463Z,92.01
2022-10-13T17:42:15.493Z,92.21
2022-10-13T17:47:18.613Z,92.23
2022-10-13T17:52:22.900Z,92.40
2022-10-13T17:57:25.692Z,92.42
2022-10-13T18:02:28.529Z,92.52
2022-10-13T18:07:32.742Z,92.96
2022-10-13T18:12:35.570Z,92.82
2022-10-13T18:17:38.351Z,93.00
2022-10-13T18:22:42.453Z,93.07
2022-10-13T18:27:45.188Z,92.96
2022-10-13T18:32:47.939Z,93.36
2022-10-13T18:37:52.855Z,93.63
2022-10-13T18:42:56.207Z,93.26
2022-10-13T18:47:58.909Z,93.63
2022-10-13T18:53:03.069Z,93.30
2022-10-13T18:58:05.789Z,93.42
2022-10-13T19:03:08.507Z,93.55
2022-10-13T19:08:12.622Z,93.45
2022-10-13T19:13:15.391Z,93.57
2022-10-13T19:18:18.115Z,93.79
2022-10-13T19:23:22.495Z,93.95
2022-10-13T19:28:25.603Z,93.87
2022-10-13T19:33:28.367Z,93.98
2022-10-13T19:38:32.499Z,94.29
2022-10-13T19:43:35.495Z,94.22
2022-10-13T19:48:38.302Z,94.24
2022-10-13T19:53:42.799Z,94.38
2022-10-13T19:58:45.617Z,94.18
2022-10-13T20:03:48.730Z,94.29
2022-10-13T20:08:52.824Z,94.56
2022-10-13T20:13:55.539Z,94.41
2022-10-13T20:19:00.767Z,94.32
2022-10-13T20:24:04.973Z,94.66
2022-10-13T20:29:07.794Z,94.65
2022-10-13T20:34:11.432Z,94.60
2022-10-13T20:39:15.606Z,94.33
2022-10-13T20:44:18.335Z,94.73
2022-10-13T20:49:21.033Z,94.70
2022-10-13T20:54:25.110Z,95.00
2022-10-13T20:59:28.025Z,94.98
2022-10-13T21:04:31.065Z,94.97
2022-10-13T21:09:35.446Z,95.24
2022-10-13T21:14:38.203Z,95.06
2022-10-13T21:19:40.897Z,95.23
2022-10-13T21:24:45.022Z,95.24
2022-10-13T21:29:47.719Z,94.98
2022-10-13T21:34:50.515Z,95.17
2022-10-13T21:39:54.812Z,94.97
2022-10-13T21:44:57.582Z,95.06
2022-10-13T21:50:00.684Z,95.01
2022-10-13T21:55:05.259Z,94.72
2022-10-13T22:00:10.048Z,94.80
2022-10-13T22:05:12.900Z,94.89
2022-10-13T22:10:17.466Z,95.22
2022-10-13T22:15:20.195Z,95.31
2022-10-13T22:20:22.880Z,95.51
2022-10-13T22:25:26.981Z,95.71
2022-10-13T22:30:29.814Z,95.79
2022-10-13T22:35:35.394Z,96.07
2022-10-13T22:40:39.476Z,96.25
2022-10-13T22:45:50.841Z,96.31
2022-10-13T22:50:53.553Z,96.22
2022-10-13T22:55:57.614Z,96.34
2022-10-13T23:01:06.092Z,96.46
2022-10-13T23:06:13.499Z,96.44
2022-10-13T23:11:18.630Z,96.33
2022-10-13T23:16:23.233Z,96.49
2022-10-13T23:21:29.246Z,96.64
2022-10-13T23:26:34.438Z,96.83
2022-10-13T23:31:37.171Z,96.68
2022-10-13T23:36:39.959Z,96.63
2022-10-13T23:41:44.238Z,96.71
2022-10-13T23:46:47.022Z,96.92
2022-10-13T23:51:49.770Z,97.05
2022-10-13T23:56:53.848Z,97.24
